Time;durP1;ratioP1;P1;durP2;ratioP2;P2;SDS_P1;SDS_P2;PMS_P1;PMS_P2;Temp;Humidity;BMP_temperature;BMP_pressure;BME280_temperature;BME280_humidity;BME280_pressure;Samples;Min_cycle;Max_cycle;Signal;HPM_P1;HPM_P2
2021/01/16 00:00:54;;;;;;;25.83;15.65;;;;;;;5.43;58.22;102947.84;4916874;28;123594;-77
2021/01/16 00:03:21;;;;;;;25.95;16.65;;;;;;;5.44;57.78;102954.84;4918391;28;122903;-76
2021/01/16 00:05:49;;;;;;;29.52;16.27;;;;;;;5.43;58.02;102953.09;4917518;28;118661;-76
2021/01/16 00:08:19;;;;;;;25.63;15.85;;;;;;;5.43;58.14;102953.09;4933936;28;118852;-76
2021/01/16 00:10:53;;;;;;;24.02;15.48;;;;;;;5.42;58.11;102951.31;4929716;28;123776;-76
2021/01/16 00:13:25;;;;;;;28.52;17.00;;;;;;;5.41;57.96;102952.19;4929346;28;123240;-76
2021/01/16 00:15:52;;;;;;;27.80;17.27;;;;;;;5.41;57.98;102954.84;4936965;28;119855;-76
2021/01/16 00:18:21;;;;;;;28.92;17.95;;;;;;;5.42;57.93;102953.94;4930062;28;119284;-77
2021/01/16 00:20:56;;;;;;;27.77;17.73;;;;;;;5.41;58.11;102945.19;4921615;28;124513;-77
2021/01/16 00:23:27;;;;;;;26.55;16.85;;;;;;;5.41;57.89;102939.06;4915090;28;123945;-77
2021/01/16 00:25:54;;;;;;;29.45;18.92;;;;;;;5.40;58.00;102942.53;4933781;28;119728;-77
2021/01/16 00:28:31;;;;;;;30.40;17.88;;;;;;;5.40;57.81;102927.66;4917176;28;118012;-77
2021/01/16 00:30:59;;;;;;;30.52;17.38;;;;;;;5.41;57.70;102928.56;4926526;28;124059;-77
2021/01/16 00:33:36;;;;;;;28.73;18.13;;;;;;;5.41;57.86;102918.91;4932528;28;124717;-77
2021/01/16 00:36:05;;;;;;;29.63;18.48;;;;;;;5.41;57.90;102924.16;4933970;28;120765;-77
2021/01/16 00:38:39;;;;;;;30.65;18.13;;;;;;;5.41;57.91;102925.94;4933876;28;118242;-77
2021/01/16 00:41:05;;;;;;;27.55;18.13;;;;;;;5.42;58.02;102925.03;4940990;28;124200;-77
2021/01/16 00:43:32;;;;;;;29.92;18.88;;;;;;;5.43;57.83;102926.81;4919347;28;122941;-77
2021/01/16 00:45:59;;;;;;;31.70;18.48;;;;;;;5.44;57.92;102933.81;4931077;28;119286;-77
2021/01/16 00:48:26;;;;;;;28.02;17.98;;;;;;;5.45;58.10;102925.09;4926031;28;118950;-77
2021/01/16 00:50:57;;;;;;;28.77;18.17;;;;;;;5.45;57.93;102925.09;4912923;28;123391;-77
2021/01/16 00:53:30;;;;;;;33.53;18.75;;;;;;;5.44;57.82;102918.97;4921246;28;123441;-77
2021/01/16 00:56:01;;;;;;;28.25;18.90;;;;;;;5.44;58.03;102928.56;4929659;28;118838;-77
2021/01/16 00:58:30;;;;;;;30.73;18.70;;;;;;;5.43;57.91;102926.81;4914122;28;117656;-77
2021/01/16 01:01:08;;;;;;;29.58;17.95;;;;;;;5.43;57.77;102916.31;4904813;28;123860;-77
2021/01/16 01:03:37;;;;;;;28.98;17.92;;;;;;;5.41;57.87;102923.28;4922435;28;123469;-77
2021/01/16 01:06:05;;;;;;;31.75;17.42;;;;;;;5.40;58.08;102918.91;4935640;28;120082;-77
2021/01/16 01:08:32;;;;;;;31.73;17.77;;;;;;;5.39;57.81;102920.66;4935749;28;119637;-77
2021/01/16 01:10:58;;;;;;;27.20;18.02;;;;;;;5.39;57.91;102930.28;4919375;28;124307;-77
2021/01/16 01:13:25;;;;;;;29.80;17.90;;;;;;;5.40;58.01;102916.25;4929672;28;124077;-77
2021/01/16 01:15:52;;;;;;;30.08;18.20;;;;;;;5.41;57.85;102923.28;4938294;28;118800;-77
2021/01/16 01:18:19;;;;;;;27.77;18.10;;;;;;;5.40;58.08;102911.00;4949104;28;119075;-77
2021/01/16 01:20:45;;;;;;;27.02;17.10;;;;;;;5.42;57.94;102910.16;4930613;28;122930;-77
2021/01/16 01:23:12;;;;;;;29.33;18.02;;;;;;;5.44;57.79;102918.06;4909945;28;124206;-77
2021/01/16 01:25:39;;;;;;;27.38;17.67;;;;;;;5.43;57.73;102911.06;4922994;28;119547;-77
2021/01/16 01:28:06;;;;;;;28.30;17.25;;;;;;;5.41;58.28;102907.53;4938029;28;119013;-77
2021/01/16 01:30:32;;;;;;;27.17;17.15;;;;;;;5.42;57.73;102914.53;4918478;28;122504;-77
2021/01/16 01:32:59;;;;;;;29.15;18.02;;;;;;;5.42;58.01;102910.16;4901368;28;123423;-77
2021/01/16 01:35:27;;;;;;;30.83;17.38;;;;;;;5.43;57.99;102908.44;4924667;28;119206;-77
2021/01/16 01:37:56;;;;;;;26.35;16.45;;;;;;;5.46;57.62;102900.56;4943978;28;118764;-77
2021/01/16 01:40:25;;;;;;;24.85;15.45;;;;;;;5.45;57.85;102904.06;4921189;28;123783;-77
2021/01/16 01:42:57;;;;;;;30.10;17.02;;;;;;;5.45;57.54;102906.69;4921983;28;122817;-77
2021/01/16 01:45:25;;;;;;;26.60;16.13;;;;;;;5.46;57.97;102900.56;4939689;28;119350;-77
2021/01/16 01:47:52;;;;;;;25.42;16.27;;;;;;;5.46;57.71;102897.91;4932248;28;118886;-78
2021/01/16 01:50:20;;;;;;;27.02;16.63;;;;;;;5.48;57.83;102898.81;4929671;28;124369;-78
2021/01/16 01:52:53;;;;;;;28.77;17.70;;;;;;;5.47;57.57;102897.06;4939791;28;125078;-77
2021/01/16 01:55:22;;;;;;;28.17;17.05;;;;;;;5.47;57.71;102891.81;4935320;28;120796;-77
2021/01/16 01:57:56;;;;;;;27.75;16.80;;;;;;;5.46;57.59;102890.03;4916356;28;119230;-77
2021/01/16 02:00:23;;;;;;;30.15;17.35;;;;;;;5.45;57.65;102890.94;4918734;28;123731;-77
2021/01/16 02:02:50;;;;;;;27.02;17.05;;;;;;;5.43;57.63;102882.16;4931715;28;124209;-78
2021/01/16 02:05:17;;;;;;;27.25;17.15;;;;;;;5.41;57.67;102870.75;4934274;28;119211;-78
2021/01/16 02:07:46;;;;;;;26.48;17.13;;;;;;;5.40;57.59;102879.47;4916096;28;118654;-77
2021/01/16 02:10:24;;;;;;;29.20;17.08;;;;;;;5.41;58.05;102870.75;4918766;28;124224;-78
2021/01/16 02:12:54;;;;;;;26.98;16.67;;;;;;;5.41;58.01;102876.00;4918243;28;123680;-77
2021/01/16 02:15:39;;;;;;;24.38;16.08;;;;;;;5.41;58.06;102879.50;4938691;28;120916;-77
2021/01/16 02:18:29;;;;;;;28.42;16.20;;;;;;;5.41;58.13;102870.75;4920010;28;117702;-78
2021/01/16 02:20:57;;;;;;;28.13;16.35;;;;;;;5.43;57.84;102879.53;4935375;28;124402;-77
2021/01/16 02:23:29;;;;;;;26.45;15.90;;;;;;;5.43;57.88;102871.63;4933643;28;123879;-77
2021/01/16 02:26:18;;;;;;;27.40;16.90;;;;;;;5.44;57.69;102870.75;4915951;28;119511;-77
2021/01/16 02:28:50;;;;;;;26.90;16.73;;;;;;;5.42;57.64;102864.59;4938000;28;119107;-78
2021/01/16 02:31:17;;;;;;;26.50;15.63;;;;;;;5.40;58.05;102866.34;4918586;28;124403;-77
2021/01/16 02:33:47;;;;;;;30.48;16.98;;;;;;;5.42;58.12;102872.50;4918817;28;124148;-78
2021/01/16 02:36:26;;;;;;;26.88;15.82;;;;;;;5.40;57.72;102872.47;4907633;28;118075;-78
2021/01/16 02:39:21;;;;;;;24.45;16.08;;;;;;;5.40;57.97;102858.47;4916785;28;119574;-78
2021/01/16 02:42:35;;;;;;;24.95;15.73;;;;;;;5.38;58.00;102860.19;4929787;28;124059;-78
2021/01/16 02:45:07;;;;;;;22.70;15.10;;;;;;;5.34;57.57;102858.41;4837074;28;122279;-77
2021/01/16 02:47:47;;;;;;;23.45;14.82;;;;;;;5.32;58.06;102860.16;4856732;28;119106;-78
2021/01/16 02:50:20;;;;;;;25.80;15.23;;;;;;;5.33;58.23;102851.38;4901100;28;119108;-78
2021/01/16 02:52:49;;;;;;;24.00;15.15;;;;;;;5.33;57.85;102856.63;4934366;28;123518;-78
2021/01/16 02:55:17;;;;;;;25.67;15.68;;;;;;;5.36;57.89;102856.66;4939100;28;123715;-78
2021/01/16 02:57:45;;;;;;;27.45;15.80;;;;;;;5.36;57.86;102861.94;4932106;28;96936;-77
2021/01/16 03:00:14;;;;;;;25.73;15.95;;;;;;;5.36;57.88;102861.94;4925463;28;118799;-78
2021/01/16 03:02:41;;;;;;;22.42;15.45;;;;;;;5.38;58.00;102852.31;4920524;28;124074;-77
2021/01/16 03:05:08;;;;;;;25.35;15.73;;;;;;;5.37;57.86;102853.16;4917429;28;123653;-77
2021/01/16 03:07:36;;;;;;;24.77;15.13;;;;;;;5.37;57.91;102847.91;4935701;28;119546;-77
2021/01/16 03:10:08;;;;;;;23.75;15.60;;;;;;;5.36;57.85;102839.16;4917162;28;118532;-77
2021/01/16 03:12:36;;;;;;;24.65;15.35;;;;;;;5.36;57.77;102838.28;4955138;22;123910;-69
2021/01/16 03:15:10;;;;;;;24.30;15.10;;;;;;;5.36;57.96;102840.91;4953486;28;123852;-69
2021/01/16 03:17:51;;;;;;;24.30;15.23;;;;;;;5.37;57.90;102850.53;4937484;28;119873;-68
2021/01/16 03:20:22;;;;;;;24.70;14.90;;;;;;;5.38;57.92;102854.94;4936530;28;118454;-68
2021/01/16 03:22:50;;;;;;;26.38;15.02;;;;;;;5.37;57.82;102845.28;4951296;28;124532;-68
2021/01/16 03:25:22;;;;;;;25.45;14.85;;;;;;;5.39;57.46;102851.47;4930828;28;123215;-69
2021/01/16 03:27:49;;;;;;;21.88;13.48;;;;;;;5.38;57.61;102844.44;4921139;28;117877;-68
2021/01/16 03:30:17;;;;;;;24.80;14.88;;;;;;;5.38;57.74;102844.44;4930457;28;117856;-68
2021/01/16 03:32:48;;;;;;;26.95;15.25;;;;;;;5.39;57.96;102848.84;4934263;28;123824;-68
2021/01/16 03:35:23;;;;;;;24.52;14.55;;;;;;;5.40;57.87;102837.44;4951712;28;123862;-68
2021/01/16 03:37:55;;;;;;;24.10;14.77;;;;;;;5.40;57.78;102826.94;4948936;28;120525;-68
2021/01/16 03:40:22;;;;;;;23.00;14.65;;;;;;;5.38;57.61;102828.66;4932198;28;119602;-69
2021/01/16 03:42:49;;;;;;;27.75;15.23;;;;;;;5.37;57.29;102827.78;4950092;28;124225;-68
2021/01/16 03:45:21;;;;;;;22.80;14.35;;;;;;;5.37;57.77;102832.13;4951549;28;124174;-69
2021/01/16 03:47:49;;;;;;;22.73;13.90;;;;;;;5.37;57.69;102826.88;4934156;28;119276;-69
2021/01/16 03:50:18;;;;;;;23.50;14.60;;;;;;;5.39;57.57;102814.66;4954210;28;119533;-69
2021/01/16 03:52:45;;;;;;;23.02;14.60;;;;;;;5.39;57.36;102809.41;4950905;28;123091;-69
2021/01/16 03:55:12;;;;;;;22.88;14.57;;;;;;;5.40;57.68;102805.91;4949242;28;123997;-69
2021/01/16 03:57:38;;;;;;;23.08;14.52;;;;;;;5.38;57.66;102797.13;4935186;28;118660;-69
2021/01/16 04:00:07;;;;;;;22.55;14.65;;;;;;;5.38;57.73;102795.38;4951443;28;119334;-69
2021/01/16 04:02:34;;;;;;;21.75;13.80;;;;;;;5.40;57.56;102795.41;4933628;28;123032;-69
2021/01/16 04:05:03;;;;;;;22.30;14.68;;;;;;;5.40;57.79;102790.13;4950877;28;123858;-69
2021/01/16 04:07:30;;;;;;;22.45;13.50;;;;;;;5.39;57.35;102788.41;4935985;28;118514;-69
2021/01/16 04:09:57;;;;;;;21.42;13.88;;;;;;;5.38;57.45;102781.38;4932880;28;119652;-70
2021/01/16 04:12:24;;;;;;;23.45;14.05;;;;;;;5.37;57.23;102774.34;4951944;28;123936;-69
2021/01/16 04:14:51;;;;;;;23.30;13.75;;;;;;;5.37;57.29;102779.59;4951563;28;124390;-69
2021/01/16 04:17:17;;;;;;;23.08;14.02;;;;;;;5.38;57.71;102776.13;4935386;28;118693;-69
2021/01/16 04:19:44;;;;;;;22.30;13.70;;;;;;;5.38;57.51;102770.84;4933563;28;117891;-69
2021/01/16 04:22:10;;;;;;;23.52;13.55;;;;;;;5.39;57.34;102777.88;4951661;28;123725;-70
2021/01/16 04:24:37;;;;;;;22.85;13.52;;;;;;;5.39;57.52;102778.75;4951985;28;124242;-69
2021/01/16 04:27:04;;;;;;;21.98;13.75;;;;;;;5.38;57.19;102776.97;4949436;28;120288;-68
2021/01/16 04:29:30;;;;;;;20.38;13.05;;;;;;;5.40;57.37;102769.13;4931343;28;119128;-68
2021/01/16 04:31:57;;;;;;;21.33;13.45;;;;;;;5.39;57.02;102777.88;4951551;28;123931;-68
2021/01/16 04:34:24;;;;;;;23.02;13.40;;;;;;;5.40;57.31;102777.00;4934827;28;124533;-69
2021/01/16 04:36:50;;;;;;;21.55;13.85;;;;;;;5.39;57.14;102783.16;4950869;28;118880;-68
2021/01/16 04:39:17;;;;;;;22.73;13.63;;;;;;;5.39;57.15;102777.88;4950356;28;119241;-68
2021/01/16 04:41:45;;;;;;;23.17;13.68;;;;;;;5.38;57.45;102773.47;4933178;28;123038;-68
2021/01/16 04:44:14;;;;;;;22.70;14.00;;;;;;;5.38;57.08;102770.84;4950653;28;123906;-68
2021/01/16 04:46:42;;;;;;;23.17;13.73;;;;;;;5.35;56.97;102766.47;4933659;28;118201;-68
2021/01/16 04:49:09;;;;;;;22.52;14.10;;;;;;;5.35;57.35;102765.56;4953604;28;119371;-69
2021/01/16 04:51:43;;;;;;;21.83;14.45;;;;;;;5.36;57.08;102762.09;4961877;28;124163;-68
2021/01/16 04:54:16;;;;;;;22.95;14.43;;;;;;;5.37;56.88;102755.94;4936915;28;123899;-68
2021/01/16 04:56:45;;;;;;;21.83;13.95;;;;;;;5.39;56.95;102756.88;4959095;28;119140;-68
2021/01/16 04:59:13;;;;;;;24.13;14.48;;;;;;;5.41;57.19;102749.88;4956479;28;118937;-67
2021/01/16 05:01:40;;;;;;;24.17;14.20;;;;;;;5.42;57.07;102752.47;4941630;28;123109;-68
2021/01/16 05:04:08;;;;;;;23.67;13.88;;;;;;;5.44;56.86;102749.88;4958670;28;124725;-68
2021/01/16 05:06:39;;;;;;;22.42;14.48;;;;;;;5.43;56.86;102737.63;4941969;28;119164;-68
2021/01/16 05:09:06;;;;;;;23.00;14.57;;;;;;;5.43;57.01;102737.63;4957240;28;118703;-68
2021/01/16 05:11:38;;;;;;;22.00;14.35;;;;;;;5.43;56.88;102735.00;4958831;28;123264;-68
2021/01/16 05:14:18;;;;;;;25.23;14.45;;;;;;;5.42;57.02;102736.72;4941251;28;124144;-68
2021/01/16 05:16:55;;;;;;;22.45;13.95;;;;;;;5.43;56.64;102735.00;4926847;28;119944;-68
2021/01/16 05:19:29;;;;;;;23.23;14.77;;;;;;;5.42;56.91;102741.09;4952433;28;118868;-68
2021/01/16 05:21:56;;;;;;;24.35;13.82;;;;;;;5.42;56.86;102730.59;4957034;28;124723;-68
2021/01/16 05:24:23;;;;;;;21.85;14.23;;;;;;;5.44;56.84;102728.84;4959122;28;123621;-68
2021/01/16 05:26:52;;;;;;;23.20;14.18;;;;;;;5.42;56.86;102722.72;4956630;28;120095;-68
2021/01/16 05:29:22;;;;;;;23.13;14.73;;;;;;;5.43;57.01;102721.84;4957119;28;119291;-68
2021/01/16 05:31:51;;;;;;;23.83;14.05;;;;;;;5.44;56.85;102718.34;4938859;28;122572;-68
2021/01/16 05:34:18;;;;;;;24.25;13.68;;;;;;;5.44;57.01;102715.72;4942305;28;123795;-68
2021/01/16 05:36:49;;;;;;;22.83;14.70;;;;;;;5.44;56.96;102713.09;4940010;28;119456;-68
2021/01/16 05:39:17;;;;;;;21.95;14.52;;;;;;;5.44;56.92;102703.47;4957599;28;119498;-68
2021/01/16 05:41:45;;;;;;;24.75;14.95;;;;;;;5.43;56.67;102706.09;4933951;28;123736;-68
2021/01/16 05:44:13;;;;;;;23.92;14.73;;;;;;;5.41;56.64;102699.94;4939416;28;123949;-68
2021/01/16 05:46:45;;;;;;;23.63;14.68;;;;;;;5.38;56.71;102687.66;4956753;28;119285;-67
2021/01/16 05:49:18;;;;;;;24.85;14.63;;;;;;;5.39;56.99;102693.81;4960236;28;119046;-68
2021/01/16 05:51:46;;;;;;;24.52;15.32;;;;;;;5.39;56.70;102693.81;4939569;28;123689;-68
2021/01/16 05:54:13;;;;;;;24.75;14.23;;;;;;;5.38;56.92;102692.91;4955712;28;124188;-68
2021/01/16 05:56:42;;;;;;;25.77;15.55;;;;;;;5.38;56.70;102694.66;4955528;28;118864;-69
2021/01/16 05:59:11;;;;;;;25.60;15.63;;;;;;;5.38;56.87;102692.03;4937332;28;118411;-69
2021/01/16 06:01:39;;;;;;;27.75;15.73;;;;;;;5.38;57.02;102685.03;4954777;28;123749;-69
2021/01/16 06:04:06;;;;;;;26.98;15.70;;;;;;;5.39;56.67;102684.16;4955635;28;124515;-69
2021/01/16 06:06:35;;;;;;;27.05;15.95;;;;;;;5.39;56.60;102688.56;4956471;28;119997;-69
2021/01/16 06:09:04;;;;;;;25.05;16.52;;;;;;;5.40;56.81;102685.03;4953339;28;120609;-69
2021/01/16 06:11:38;;;;;;;25.13;15.88;;;;;;;5.37;56.70;102679.75;4952165;28;124053;-68
2021/01/16 06:14:09;;;;;;;28.08;16.20;;;;;;;5.38;56.94;102676.28;4947963;28;123382;-68
2021/01/16 06:16:53;;;;;;;27.45;16.85;;;;;;;5.35;56.70;102676.25;4954830;28;118667;-68
2021/01/16 06:19:26;;;;;;;24.63;16.30;;;;;;;5.35;56.97;102673.59;4948613;28;118094;-68
2021/01/16 06:21:54;;;;;;;26.40;16.75;;;;;;;5.34;56.86;102670.13;4940389;28;123926;-68
2021/01/16 06:24:22;;;;;;;30.25;17.23;;;;;;;5.34;56.83;102675.38;4954744;28;124314;-68
2021/01/16 06:26:53;;;;;;;25.58;17.20;;;;;;;5.34;56.57;102674.50;4920655;28;118224;-68
2021/01/16 06:29:25;;;;;;;29.60;16.67;;;;;;;5.33;56.82;102667.47;4948013;28;119487;-67
2021/01/16 06:31:52;;;;;;;27.05;17.20;;;;;;;5.33;57.09;102673.63;4933437;28;124250;-68
2021/01/16 06:34:33;;;;;;;31.85;17.15;;;;;;;5.32;56.89;102666.59;4952547;28;124087;-67
2021/01/16 06:37:12;;;;;;;25.65;16.80;;;;;;;5.33;56.83;102662.22;4957263;28;119598;-67
2021/01/16 06:39:41;;;;;;;29.38;17.40;;;;;;;5.32;56.61;102668.34;4953143;28;119221;-67
2021/01/16 06:42:11;;;;;;;27.13;17.05;;;;;;;5.29;56.83;102660.44;4936167;28;123166;-68
2021/01/16 06:44:38;;;;;;;29.70;18.08;;;;;;;5.28;56.59;102661.34;4952733;28;123830;-68
2021/01/16 06:47:06;;;;;;;26.73;17.27;;;;;;;5.26;56.90;102650.81;4935134;28;118086;-69
2021/01/16 06:49:34;;;;;;;28.20;17.73;;;;;;;5.26;56.75;102656.06;4920753;28;116656;-68
2021/01/16 06:52:07;;;;;;;28.40;17.25;;;;;;;5.25;56.61;102655.19;4953852;28;124272;-69
2021/01/16 06:54:35;;;;;;;28.20;17.50;;;;;;;5.24;56.57;102648.16;4952699;28;123906;-69
2021/01/16 06:57:08;;;;;;;32.22;18.40;;;;;;;5.23;56.59;102643.75;4952546;28;120942;-69
2021/01/16 06:59:37;;;;;;;28.42;17.33;;;;;;;5.22;56.85;102651.66;4933970;28;119599;-69
2021/01/16 07:02:25;;;;;;;28.48;17.70;;;;;;;5.20;56.50;102651.66;4956351;28;124375;-69
2021/01/16 07:04:54;;;;;;;28.20;16.88;;;;;;;5.19;57.05;102655.13;4955115;28;124697;-69
2021/01/16 07:07:31;;;;;;;32.72;17.88;;;;;;;5.17;57.00;102646.38;4945337;28;118147;-69
2021/01/16 07:10:07;;;;;;;28.85;17.40;;;;;;;5.17;56.78;102646.38;4933033;28;119158;-69
2021/01/16 07:12:34;;;;;;;28.00;17.13;;;;;;;5.16;56.84;102655.13;4916249;28;123114;-69
2021/01/16 07:15:04;;;;;;;30.20;17.90;;;;;;;5.17;56.92;102651.63;4954225;28;124061;-69
2021/01/16 07:17:31;;;;;;;31.23;17.75;;;;;;;5.16;57.08;102647.25;4953455;28;119313;-69
2021/01/16 07:19:58;;;;;;;29.42;17.98;;;;;;;5.16;57.04;102639.38;4919354;28;118644;-68
2021/01/16 07:22:29;;;;;;;30.75;18.23;;;;;;;5.16;57.06;102634.13;4956000;28;124307;-68
2021/01/16 07:25:00;;;;;;;29.50;18.52;;;;;;;5.15;56.92;102632.34;4952522;28;124073;-68
2021/01/16 07:27:28;;;;;;;30.20;18.45;;;;;;;5.15;56.82;102640.22;4953192;28;119635;-68
2021/01/16 07:29:59;;;;;;;28.80;17.92;;;;;;;5.16;56.86;102628.88;4952764;28;119413;-68
2021/01/16 07:32:49;;;;;;;30.55;17.67;;;;;;;5.16;56.83;102634.13;4949698;28;124461;-68
2021/01/16 07:35:21;;;;;;;30.05;17.75;;;;;;;5.17;57.19;102635.00;4949583;28;123965;-68
2021/01/16 07:37:53;;;;;;;27.77;17.50;;;;;;;5.16;56.83;102634.13;4948258;28;118763;-68
2021/01/16 07:40:28;;;;;;;26.17;17.30;;;;;;;5.17;57.15;102630.59;4931661;28;119017;-68
2021/01/16 07:42:59;;;;;;;25.77;17.58;;;;;;;5.18;56.94;102632.38;4947894;28;124081;-68
2021/01/16 07:45:30;;;;;;;29.00;18.30;;;;;;;5.18;56.84;102627.13;4950176;28;122086;-68
2021/01/16 07:47:59;;;;;;;28.80;17.85;;;;;;;5.18;57.01;102626.22;4933735;28;120537;-69
2021/01/16 07:50:31;;;;;;;29.88;17.90;;;;;;;5.19;56.75;102623.59;4952598;28;120563;-69
2021/01/16 07:53:00;;;;;;;28.95;17.45;;;;;;;5.17;57.10;102620.09;4950234;28;124595;-68
2021/01/16 07:55:36;;;;;;;29.40;17.80;;;;;;;5.18;57.12;102621.88;4933755;28;124547;-68
2021/01/16 07:58:08;;;;;;;28.05;17.45;;;;;;;5.18;56.94;102616.63;4931192;28;120045;-68
2021/01/16 08:00:37;;;;;;;29.45;17.58;;;;;;;5.18;56.77;102621.88;4950084;28;119480;-68
2021/01/16 08:03:27;;;;;;;31.10;17.95;;;;;;;5.16;56.82;102615.72;4936362;28;125189;-68
2021/01/16 08:06:15;;;;;;;32.92;17.48;;;;;;;5.17;57.04;102620.09;4952452;28;124280;-68
2021/01/16 08:08:57;;;;;;;29.55;17.40;;;;;;;5.19;56.81;102618.34;4936170;28;118289;-68
2021/01/16 08:11:29;;;;;;;27.05;17.30;;;;;;;5.19;57.13;102607.84;4944776;28;119222;-68
2021/01/16 08:14:01;;;;;;;28.95;18.38;;;;;;;5.19;57.04;102613.09;4934576;28;124383;-69
2021/01/16 08:16:27;;;;;;;29.85;17.65;;;;;;;5.18;57.13;102606.09;4935693;28;123778;-69
2021/01/16 08:19:09;;;;;;;31.08;18.23;;;;;;;5.17;57.03;102609.59;4952599;28;120193;-69
2021/01/16 08:21:37;;;;;;;29.63;17.77;;;;;;;5.18;57.05;102611.38;4955149;28;118995;-69
2021/01/16 08:24:05;;;;;;;29.30;17.52;;;;;;;5.18;56.70;102608.75;4951567;28;123699;-69
2021/01/16 08:26:32;;;;;;;29.27;18.27;;;;;;;5.19;57.02;102607.84;4939767;28;122746;-71
2021/01/16 08:28:59;;;;;;;30.75;18.05;;;;;;;5.20;57.02;102599.13;4955066;28;118290;-69
2021/01/16 08:31:30;;;;;;;28.25;17.85;;;;;;;5.22;56.96;102597.38;4934668;28;118375;-69
2021/01/16 08:33:57;;;;;;;30.88;17.98;;;;;;;5.24;56.89;102600.88;4945062;28;124253;-69
2021/01/16 08:36:26;;;;;;;27.88;17.13;;;;;;;5.28;57.03;102595.66;4950530;28;124639;-69
2021/01/16 08:38:53;;;;;;;29.55;18.23;;;;;;;5.26;56.74;102593.88;4933851;28;119430;-69
2021/01/16 08:41:26;;;;;;;27.25;18.10;;;;;;;5.25;57.07;102592.16;4948712;28;120241;-69
2021/01/16 08:43:58;;;;;;;31.20;17.85;;;;;;;5.29;56.85;102584.25;4930780;28;123175;-69
2021/01/16 08:46:33;;;;;;;28.33;17.77;;;;;;;5.29;56.80;102584.25;4950610;28;123962;-69
2021/01/16 08:49:10;;;;;;;26.15;17.08;;;;;;;5.30;56.93;102586.03;4952635;28;119324;-69
2021/01/16 08:51:41;;;;;;;31.13;18.33;;;;;;;5.32;56.80;102587.78;4933748;28;119667;-69
2021/01/16 08:54:09;;;;;;;27.85;17.65;;;;;;;5.34;57.03;102585.16;4943790;28;124052;-69
2021/01/16 08:56:37;;;;;;;27.77;18.00;;;;;;;5.35;57.00;102581.66;4937748;28;122744;-69
2021/01/16 08:59:27;;;;;;;28.80;17.90;;;;;;;5.35;56.64;102574.69;4945253;28;119364;-69
2021/01/16 09:02:03;;;;;;;26.92;16.83;;;;;;;5.38;56.98;102571.16;4954096;28;120112;-69
2021/01/16 09:04:31;;;;;;;29.20;17.60;;;;;;;5.41;56.87;102571.19;4945600;28;124392;-68
2021/01/16 09:07:17;;;;;;;29.85;17.77;;;;;;;5.41;56.54;102560.69;4955072;28;124667;-69
2021/01/16 09:09:54;;;;;;;29.35;17.42;;;;;;;5.42;56.74;102562.44;4950390;28;119898;-69
2021/01/16 09:12:30;;;;;;;25.70;16.52;;;;;;;5.43;56.64;102564.19;4932255;28;117697;-69
2021/01/16 09:15:21;;;;;;;28.38;18.08;;;;;;;5.46;56.80;102569.44;4952889;23;123506;-70
2021/01/16 09:18:08;;;;;;;28.23;17.58;;;;;;;5.45;56.78;102568.56;4935915;28;124060;-71
2021/01/16 09:20:40;;;;;;;27.13;16.70;;;;;;;5.48;56.49;102567.69;4941166;28;118836;-71
2021/01/16 09:23:19;;;;;;;30.10;18.67;;;;;;;5.45;56.55;102567.72;4942480;28;119098;-71
2021/01/16 09:25:47;;;;;;;28.80;18.20;;;;;;;5.49;56.49;102569.47;4942866;28;123676;-71
2021/01/16 09:28:13;;;;;;;29.52;17.52;;;;;;;5.50;56.51;102560.72;4945826;28;124105;-70
2021/01/16 09:30:40;;;;;;;30.35;17.63;;;;;;;5.54;56.54;102562.50;4943521;28;120602;-72
2021/01/16 09:33:24;;;;;;;27.30;17.83;;;;;;;5.55;56.38;102561.59;4940817;28;120011;-70
2021/01/16 09:35:52;;;;;;;29.42;17.08;;;;;;;5.59;56.60;102550.22;4939708;28;123383;-70
2021/01/16 09:38:20;;;;;;;27.13;18.40;;;;;;;5.61;56.31;102559.00;4948428;28;123688;-70
2021/01/16 09:40:49;;;;;;;29.13;17.77;;;;;;;5.64;56.38;102558.13;4951292;28;119197;-70
2021/01/16 09:43:20;;;;;;;33.53;17.80;;;;;;;5.66;56.15;102552.00;4948022;28;119140;-70
2021/01/16 09:45:55;;;;;;;29.55;17.50;;;;;;;5.65;56.04;102555.50;4937695;28;123783;-70
2021/01/16 09:48:30;;;;;;;31.88;18.10;;;;;;;5.68;56.09;102543.25;4949825;28;123477;-70
2021/01/16 09:50:57;;;;;;;;;;;;;;;5.71;56.35;102553.75;4950991;28;118137;-70
2021/01/16 09:53:28;;;;;;;31.58;17.10;;;;;;;5.75;56.18;102551.16;4948337;28;118513;-70
2021/01/16 09:55:56;;;;;;;31.30;17.70;;;;;;;5.78;56.42;102555.53;4934361;28;124848;-71
2021/01/16 09:58:38;;;;;;;27.60;17.90;;;;;;;5.79;55.99;102546.78;4935345;28;123063;-70
2021/01/16 10:01:16;;;;;;;28.23;17.08;;;;;;;5.82;56.14;102546.78;4942906;28;119440;-70
2021/01/16 10:03:44;;;;;;;30.42;18.15;;;;;;;5.86;56.12;102543.31;4947374;28;119388;-70
2021/01/16 10:06:13;;;;;;;29.58;17.67;;;;;;;5.88;55.84;102546.81;4933319;28;122784;-70
2021/01/16 10:08:40;;;;;;;29.05;17.58;;;;;;;5.89;56.03;102548.53;4938739;28;123426;-70
2021/01/16 10:11:07;;;;;;;29.00;17.50;;;;;;;5.92;55.76;102547.69;4938345;28;118824;-70
2021/01/16 10:13:36;;;;;;;28.25;16.88;;;;;;;5.94;55.50;102541.56;4940942;28;119739;-70
2021/01/16 10:16:08;;;;;;;27.33;17.27;;;;;;;5.97;55.60;102546.88;4942550;28;123993;-70
2021/01/16 10:18:36;;;;;;;26.40;17.45;;;;;;;6.00;55.52;102531.06;4940195;28;124092;-71
2021/01/16 10:21:07;;;;;;;27.73;16.90;;;;;;;6.03;55.73;102536.34;4941299;28;120966;-70
2021/01/16 10:23:42;;;;;;;26.15;15.88;;;;;;;6.03;55.55;102531.09;4935340;28;120311;-70
2021/01/16 10:26:14;;;;;;;27.17;16.42;;;;;;;6.07;55.41;102525.84;4934804;28;123156;-70
2021/01/16 10:28:53;;;;;;;26.83;16.77;;;;;;;6.11;55.75;102530.22;4930934;28;124057;-70
2021/01/16 10:31:23;;;;;;;24.98;15.95;;;;;;;6.15;55.35;102537.22;4931911;28;119915;-70
2021/01/16 10:33:50;;;;;;;24.08;16.45;;;;;;;6.18;55.28;102526.72;4951158;28;118750;-70
2021/01/16 10:36:19;;;;;;;27.02;16.88;;;;;;;6.19;55.41;102520.56;4935425;28;122806;-69
2021/01/16 10:38:50;;;;;;;28.15;17.05;;;;;;;6.21;55.41;102518.81;4933857;28;124006;-71
2021/01/16 10:41:32;;;;;;;25.40;15.88;;;;;;;6.23;55.24;102515.31;4931719;28;120010;-70
2021/01/16 10:44:02;;;;;;;24.90;15.70;;;;;;;6.24;54.89;102493.38;4941982;28;118741;-70
2021/01/16 10:46:38;;;;;;;25.30;15.10;;;;;;;6.24;54.81;102492.50;4947916;28;124358;-70
2021/01/16 10:49:10;;;;;;;25.67;14.85;;;;;;;6.24;55.02;102497.78;4944658;28;124463;-71
2021/01/16 10:51:47;;;;;;;24.30;14.55;;;;;;;6.24;54.91;102488.13;4948997;28;119654;-71
2021/01/16 10:54:15;;;;;;;21.35;13.88;;;;;;;6.27;54.83;102476.69;4931564;28;119275;-71
2021/01/16 10:56:44;;;;;;;21.63;13.35;;;;;;;6.31;54.64;102477.56;4931991;28;123354;-70
2021/01/16 10:59:13;;;;;;;24.90;14.48;;;;;;;6.30;54.43;102471.44;4945955;28;124007;-71
2021/01/16 11:01:44;;;;;;;22.60;13.90;;;;;;;6.32;54.53;102464.44;4950123;28;118882;-71
2021/01/16 11:04:20;;;;;;;20.35;13.10;;;;;;;6.32;54.36;102460.94;4943128;28;119013;-71
2021/01/16 11:06:49;;;;;;;20.40;12.85;;;;;;;6.35;54.13;102464.44;4948626;28;123678;-71
2021/01/16 11:09:34;;;;;;;21.08;12.65;;;;;;;6.36;54.44;102452.16;4950301;28;123553;-70
2021/01/16 11:12:05;;;;;;;19.40;13.17;;;;;;;6.40;54.48;102462.69;4927865;28;119674;-71
2021/01/16 11:14:36;;;;;;;20.98;12.38;;;;;;;6.41;53.89;102459.16;4930993;28;120445;-70
2021/01/16 11:17:05;;;;;;;19.00;12.00;;;;;;;6.43;53.96;102440.72;4936830;28;124551;-71
2021/01/16 11:19:37;;;;;;;17.27;11.00;;;;;;;6.46;54.23;102439.84;4940567;28;124824;-71
2021/01/16 11:22:06;;;;;;;17.75;11.63;;;;;;;6.49;53.91;102445.09;4922034;28;119059;-71
2021/01/16 11:25:12;;;;;;;16.73;11.18;;;;;;;6.48;53.66;102438.06;4938649;28;118805;-71
2021/01/16 11:28:04;;;;;;;17.50;11.35;;;;;;;6.49;53.32;102429.31;4946127;28;124137;-71